Time;durP1;ratioP1;P1;durP2;ratioP2;P2;SDS_P1;SDS_P2;PMS_P1;PMS_P2;Temp;Humidity;BMP_temperature;BMP_pressure;BME280_temperature;BME280_humidity;BME280_pressure;Samples;Min_cycle;Max_cycle;Signal;HPM_P1;HPM_P2
2022/01/18 00:00:23;;;;;;;;;;;8.30;99.90;;;;;;5075214;28;19962;-60
2022/01/18 00:02:49;;;;;;;;;;;8.30;99.90;;;;;;5075193;28;19940;-60
2022/01/18 00:05:15;;;;;;;;;;;8.30;99.90;;;;;;5075248;28;20015;-60
2022/01/18 00:07:41;;;;;;;;;;;8.30;99.90;;;;;;5074981;28;19919;-60
2022/01/18 00:10:07;;;;;;;;;;;8.30;99.90;;;;;;5074396;28;19991;-60
2022/01/18 00:17:52;;;;;;;;;;;8.30;99.90;;;;;;5094582;28;19916;-59
2022/01/18 00:20:24;;;;;;;;;;;8.30;99.90;;;;;;5094995;28;20309;-61
2022/01/18 00:22:50;;;;;;;;;;;8.30;99.90;;;;;;5095087;28;19915;-61
2022/01/18 00:25:17;;;;;;;;;;;8.30;99.90;;;;;;5084596;28;19908;-61
2022/01/18 00:27:42;;;;;;;;;;;8.30;99.90;;;;;;5074613;28;20425;-60
2022/01/18 00:30:30;;;;;;;;;;;8.40;99.90;;;;;;5074464;28;19912;-60
2022/01/18 00:33:06;;;;;;;;;;;8.30;99.90;;;;;;5073690;28;19920;-60
2022/01/18 00:35:34;;;;;;;;;;;8.30;99.90;;;;;;5076842;28;19908;-61
2022/01/18 00:38:00;;;;;;;;;;;8.30;99.90;;;;;;5086225;28;20295;-60
2022/01/18 00:40:25;;;;;;;;;;;8.30;99.90;;;;;;5093951;28;19908;-60
2022/01/18 00:42:51;;;;;;;;;;;8.30;99.90;;;;;;5080970;28;19916;-60
2022/01/18 00:45:16;;;;;;;;;;;8.30;99.90;;;;;;5084344;28;19912;-60
2022/01/18 00:47:42;;;;;;;;;;;8.30;99.90;;;;;;5094056;28;19955;-60
2022/01/18 00:50:09;;;;;;;;;;;8.30;99.90;;;;;;5094508;28;19915;-60
2022/01/18 00:52:40;;;;;;;;;;;8.30;99.90;;;;;;5093877;28;19916;-60
2022/01/18 00:55:05;;;;;;;;;;;8.30;99.90;;;;;;5086049;28;19908;-60
2022/01/18 00:57:31;;;;;;;;;;;8.30;99.90;;;;;;5073971;28;20443;-60
2022/01/18 00:59:56;;;;;;;;;;;8.20;99.90;;;;;;5073520;28;20382;-60
2022/01/18 01:02:22;;;;;;;;;;;8.20;99.90;;;;;;5073757;28;19908;-61
2022/01/18 01:04:48;;;;;;;;;;;8.20;99.90;;;;;;5074719;28;19928;-60
2022/01/18 01:07:18;;;;;;;;;;;8.20;99.90;;;;;;5073365;28;19991;-62
2022/01/18 01:09:43;;;;;;;;;;;8.20;99.90;;;;;;5073885;28;19912;-61
2022/01/18 01:12:11;;;;;;;;;;;8.10;99.90;;;;;;5073720;28;19916;-60
2022/01/18 01:14:36;;;;;;;;;;;8.10;99.90;;;;;;5075845;28;20344;-60
2022/01/18 01:17:15;;;;;;;;;;;8.10;99.90;;;;;;5093597;28;19908;-61
2022/01/18 01:34:02;;;;;;;;;;;7.90;99.90;;;;;;5073906;28;19970;-60
2022/01/18 01:41:47;;;;;;;;;;;7.90;99.90;;;;;;5071950;28;19962;-60
2022/01/18 01:42:34;;;;;;;;;;;7.90;99.90;;;;;;5092982;28;19955;-61
2022/01/18 01:45:02;;;;;;;;;;;7.90;99.90;;;;;;5087938;28;20005;-61
2022/01/18 01:47:35;;;;;;;;;;;7.80;99.90;;;;;;5073428;28;19916;-60
2022/01/18 01:50:15;;;;;;;;;;;7.80;99.90;;;;;;5072898;28;19951;-60
2022/01/18 01:52:40;;;;;;;;;;;7.80;99.90;;;;;;5073321;28;19916;-60
2022/01/18 01:55:06;;;;;;;;;;;7.80;99.90;;;;;;5079077;28;20036;-60
2022/01/18 01:57:31;;;;;;;;;;;7.70;99.90;;;;;;5092906;28;19908;-60
2022/01/18 01:59:57;;;;;;;;;;;7.80;99.90;;;;;;5093469;28;19912;-60
2022/01/18 02:02:25;;;;;;;;;;;7.70;99.90;;;;;;5093383;28;20371;-60
2022/01/18 02:04:50;;;;;;;;;;;7.80;99.90;;;;;;5091882;28;20274;-60
2022/01/18 02:07:16;;;;;;;;;;;7.70;99.90;;;;;;5091183;28;19912;-60
2022/01/18 02:09:41;;;;;;;;;;;7.80;99.90;;;;;;5093412;28;19947;-60
2022/01/18 02:12:07;;;;;;;;;;;7.70;99.90;;;;;;5092652;28;19923;-61
2022/01/18 02:14:33;;;;;;;;;;;7.70;99.90;;;;;;5093274;28;19908;-60
2022/01/18 02:22:27;;;;;;;;;;;7.70;99.90;;;;;;5073546;28;20247;-60
2022/01/18 02:24:52;;;;;;;;;;;7.70;99.90;;;;;;5072554;28;19909;-60
2022/01/18 02:27:18;;;;;;;;;;;7.70;99.90;;;;;;5073158;28;19935;-60
2022/01/18 02:29:43;;;;;;;;;;;7.70;99.90;;;;;;5073068;28;19919;-60
2022/01/18 02:32:09;;;;;;;;;;;7.70;99.90;;;;;;5072337;28;19916;-60
2022/01/18 02:34:35;;;;;;;;;;;7.70;99.90;;;;;;5074616;28;20272;-60
2022/01/18 02:37:03;;;;;;;;;;;7.70;99.90;;;;;;5078900;28;19920;-60
2022/01/18 02:39:29;;;;;;;;;;;7.60;99.90;;;;;;5096417;28;19908;-60
2022/01/18 02:41:56;;;;;;;;;;;7.60;99.90;;;;;;5096951;28;19914;-60
2022/01/18 02:44:22;;;;;;;;;;;7.60;99.90;;;;;;5096972;28;20002;-60
2022/01/18 02:46:48;;;;;;;;;;;7.60;99.90;;;;;;5096160;28;19908;-60
2022/01/18 02:49:13;;;;;;;;;;;7.60;99.90;;;;;;5076831;28;20004;-60
2022/01/18 02:51:39;;;;;;;;;;;7.70;99.90;;;;;;5076403;28;20355;-60
2022/01/18 02:54:05;;;;;;;;;;;7.60;99.90;;;;;;5075915;28;19909;-60
2022/01/18 02:56:36;;;;;;;;;;;7.70;99.90;;;;;;5076276;28;19940;-60
2022/01/18 02:59:10;;;;;;;;;;;7.60;99.90;;;;;;5093319;28;19912;-60
2022/01/18 03:04:20;;;;;;;;;;;7.70;99.90;;;;;;5096583;28;20445;-60
2022/01/18 03:06:45;;;;;;;;;;;7.70;99.90;;;;;;5096056;28;19922;-60
2022/01/18 03:09:11;;;;;;;;;;;7.70;99.90;;;;;;5078550;28;19913;-60
2022/01/18 03:11:36;;;;;;;;;;;7.70;99.90;;;;;;5076088;28;20398;-60
2022/01/18 03:14:02;;;;;;;;;;;7.70;99.90;;;;;;5076343;28;19909;-60
2022/01/18 03:16:28;;;;;;;;;;;7.70;99.90;;;;;;5096295;28;19954;-60
2022/01/18 03:18:53;;;;;;;;;;;7.60;99.90;;;;;;5096318;28;19970;-60
2022/01/18 03:21:19;;;;;;;;;;;7.60;99.90;;;;;;5081461;28;19950;-60
2022/01/18 03:23:51;;;;;;;;;;;7.60;99.90;;;;;;5086714;28;19919;-60
2022/01/18 03:26:18;;;;;;;;;;;7.60;99.90;;;;;;5096060;28;20365;-60
2022/01/18 03:28:43;;;;;;;;;;;7.60;99.90;;;;;;5095541;28;20263;-60
2022/01/18 03:31:09;;;;;;;;;;;7.60;99.90;;;;;;5095886;28;19937;-60
2022/01/18 03:33:34;;;;;;;;;;;7.60;99.90;;;;;;5086757;28;19942;-60
2022/01/18 03:36:00;;;;;;;;;;;7.60;99.90;;;;;;5075225;28;19909;-60
2022/01/18 03:38:29;;;;;;;;;;;7.60;99.90;;;;;;5075787;28;20260;-60
2022/01/18 03:40:56;;;;;;;;;;;7.50;99.90;;;;;;5075557;28;19931;-60
2022/01/18 03:43:22;;;;;;;;;;;7.60;99.90;;;;;;5074865;28;20255;-60
2022/01/18 03:45:47;;;;;;;;;;;7.60;99.90;;;;;;5075606;28;19909;-60
2022/01/18 03:48:22;;;;;;;;;;;7.60;99.90;;;;;;5075395;28;19912;-60
2022/01/18 03:50:48;;;;;;;;;;;7.60;99.90;;;;;;5075375;28;19909;-61
2022/01/18 03:53:13;;;;;;;;;;;7.60;99.90;;;;;;5080873;28;20405;-61
2022/01/18 03:55:39;;;;;;;;;;;7.60;99.90;;;;;;5095117;28;20160;-60
2022/01/18 03:58:04;;;;;;;;;;;7.60;99.90;;;;;;5095471;28;19943;-60
2022/01/18 04:00:29;;;;;;;;;;;7.60;99.90;;;;;;5095428;28;19912;-60
2022/01/18 04:02:55;;;;;;;;;;;7.60;99.90;;;;;;5093108;28;19928;-60
2022/01/18 04:05:22;;;;;;;;;;;7.60;99.90;;;;;;5094931;28;19919;-60
2022/01/18 04:07:47;;;;;;;;;;;7.60;99.90;;;;;;5095334;28;19909;-60
2022/01/18 04:10:13;;;;;;;;;;;7.70;99.90;;;;;;5094744;28;19969;-60
2022/01/18 04:12:39;;;;;;;;;;;7.70;99.90;;;;;;5094948;28;20244;-61
2022/01/18 04:15:08;;;;;;;;;;;7.70;99.90;;;;;;5093109;28;19912;-60
2022/01/18 04:17:50;;;;;;;;;;;7.70;99.90;;;;;;5094679;28;20024;-60
2022/01/18 04:26:52;;;;;;;;;;;7.60;99.90;;;;;;5093660;28;20389;-60
2022/01/18 04:28:44;;;;;;;;;;;7.60;99.90;;;;;;5092336;28;19915;-60
2022/01/18 04:31:10;;;;;;;;;;;7.60;99.90;;;;;;5094153;28;19919;-60
2022/01/18 04:33:36;;;;;;;;;;;7.60;99.90;;;;;;5084761;28;19912;-60
2022/01/18 04:36:03;;;;;;;;;;;7.50;99.90;;;;;;5074456;28;20371;-60
2022/01/18 04:38:28;;;;;;;;;;;7.50;99.90;;;;;;5073772;28;19915;-60
2022/01/18 04:40:59;;;;;;;;;;;7.50;99.90;;;;;;5074147;28;19913;-60
2022/01/18 04:43:44;;;;;;;;;;;7.50;99.90;;;;;;5080518;28;19916;-60
2022/01/18 04:48:54;;;;;;;;;;;7.40;99.90;;;;;;5094846;28;19958;-60
2022/01/18 04:51:20;;;;;;;;;;;7.40;99.90;;;;;;5094430;28;20014;-61
2022/01/18 04:53:53;;;;;;;;;;;7.40;99.90;;;;;;5084848;28;19958;-60
2022/01/18 04:56:27;;;;;;;;;;;7.40;99.90;;;;;;5073520;28;19908;-60
2022/01/18 04:58:53;;;;;;;;;;;7.40;99.90;;;;;;5073679;28;19908;-60
2022/01/18 05:01:18;;;;;;;;;;;7.40;99.90;;;;;;5074003;28;19999;-60
2022/01/18 05:03:44;;;;;;;;;;;7.40;99.90;;;;;;5082145;28;19958;-60
2022/01/18 05:06:13;;;;;;;;;;;7.40;99.90;;;;;;5091642;28;20351;-60
2022/01/18 05:08:39;;;;;;;;;;;7.40;99.90;;;;;;5094253;28;19908;-60
2022/01/18 05:11:06;;;;;;;;;;;7.40;99.90;;;;;;5094021;28;19923;-60
2022/01/18 05:16:26;;;;;;;;;;;7.40;99.90;;;;;;5073812;28;19912;-60
2022/01/18 05:19:11;;;;;;;;;;;7.40;99.90;;;;;;5073718;28;19920;-60
2022/01/18 05:24:21;;;;;;;;;;;7.40;99.90;;;;;;5085135;28;19908;-60
2022/01/18 05:26:47;;;;;;;;;;;7.40;99.90;;;;;;5093424;28;19916;-60
2022/01/18 05:29:13;;;;;;;;;;;7.40;99.90;;;;;;5093750;28;19915;-60
2022/01/18 05:31:38;;;;;;;;;;;7.40;99.90;;;;;;5093758;28;19969;-60
2022/01/18 05:34:04;;;;;;;;;;;7.40;99.90;;;;;;5083931;28;19912;-60
2022/01/18 05:36:29;;;;;;;;;;;7.40;99.90;;;;;;5073555;28;19913;-60
2022/01/18 05:38:55;;;;;;;;;;;7.40;99.90;;;;;;5073503;28;19912;-60
2022/01/18 05:41:20;;;;;;;;;;;7.40;99.90;;;;;;5078770;28;19908;-60
2022/01/18 05:43:46;;;;;;;;;;;7.40;99.90;;;;;;5093839;28;19912;-60
2022/01/18 05:46:11;;;;;;;;;;;7.40;99.90;;;;;;5087521;28;19908;-60
2022/01/18 05:48:37;;;;;;;;;;;7.40;99.90;;;;;;5072901;28;19913;-60
2022/01/18 05:51:02;;;;;;;;;;;7.30;99.90;;;;;;5074260;28;19916;-60
2022/01/18 05:53:29;;;;;;;;;;;7.30;99.90;;;;;;5073292;28;19927;-60
2022/01/18 05:55:54;;;;;;;;;;;7.30;99.90;;;;;;5072780;28;19913;-61
2022/01/18 05:58:20;;;;;;;;;;;7.40;99.90;;;;;;5073182;28;19931;-60
2022/01/18 06:00:52;;;;;;;;;;;7.30;99.90;;;;;;5089221;28;19914;-60
2022/01/18 06:03:26;;;;;;;;;;;7.30;99.90;;;;;;5092945;28;19912;-60
2022/01/18 06:08:35;;;;;;;;;;;7.30;99.90;;;;;;5093829;28;19999;-60
2022/01/18 06:11:01;;;;;;;;;;;7.30;99.90;;;;;;5078182;28;20018;-60
2022/01/18 06:13:28;;;;;;;;;;;7.40;99.90;;;;;;5077193;28;19963;-60
2022/01/18 06:15:54;;;;;;;;;;;7.40;99.90;;;;;;5077232;28;20543;-60
2022/01/18 06:18:19;;;;;;;;;;;7.40;99.90;;;;;;5076629;28;19944;-61
2022/01/18 06:20:45;;;;;;;;;;;7.40;99.90;;;;;;5077135;28;19936;-60
2022/01/18 06:23:10;;;;;;;;;;;7.30;99.90;;;;;;5076403;28;19913;-60
2022/01/18 06:25:36;;;;;;;;;;;7.30;99.90;;;;;;5077138;28;19913;-60
2022/01/18 06:28:02;;;;;;;;;;;7.30;99.90;;;;;;5077031;28;19989;-60
2022/01/18 06:30:27;;;;;;;;;;;7.30;99.90;;;;;;5089289;28;19919;-60
2022/01/18 06:32:52;;;;;;;;;;;7.30;99.90;;;;;;5097124;28;19923;-60
2022/01/18 06:35:18;;;;;;;;;;;7.30;99.90;;;;;;5097086;28;19912;-60
2022/01/18 06:37:43;;;;;;;;;;;7.40;99.90;;;;;;5092032;28;19939;-60
2022/01/18 06:40:10;;;;;;;;;;;7.40;99.90;;;;;;5076438;28;19916;-60
2022/01/18 06:42:36;;;;;;;;;;;7.40;99.90;;;;;;5076685;28;19962;-60
2022/01/18 06:45:02;;;;;;;;;;;7.40;99.90;;;;;;5083875;28;19916;-60
2022/01/18 06:47:27;;;;;;;;;;;7.40;99.90;;;;;;5096368;28;20443;-60
2022/01/18 06:49:53;;;;;;;;;;;7.40;99.90;;;;;;5096827;28;19914;-60
2022/01/18 06:52:18;;;;;;;;;;;7.40;99.90;;;;;;5096050;28;19920;-60
2022/01/18 06:54:44;;;;;;;;;;;7.40;99.90;;;;;;5091143;28;19956;-60
2022/01/18 06:57:09;;;;;;;;;;;7.40;99.90;;;;;;5076434;28;19912;-60
2022/01/18 06:59:35;;;;;;;;;;;7.50;99.90;;;;;;5076022;28;19952;-60
2022/01/18 07:02:01;;;;;;;;;;;7.50;99.90;;;;;;5076371;28;19920;-60
2022/01/18 07:04:27;;;;;;;;;;;7.50;99.90;;;;;;5078126;28;19920;-60
2022/01/18 07:06:52;;;;;;;;;;;7.50;99.90;;;;;;5094901;28;19916;-60
2022/01/18 07:09:23;;;;;;;;;;;7.50;99.90;;;;;;5095257;28;19908;-61
2022/01/18 07:11:52;;;;;;;;;;;7.50;99.90;;;;;;5095273;28;20279;-61
2022/01/18 07:14:17;;;;;;;;;;;7.60;99.90;;;;;;5093150;28;20058;-61
2022/01/18 07:16:43;;;;;;;;;;;7.50;99.90;;;;;;5095045;28;19958;-61
2022/01/18 07:19:08;;;;;;;;;;;7.50;99.90;;;;;;5094993;28;19909;-60
2022/01/18 07:21:34;;;;;;;;;;;7.50;99.90;;;;;;5094168;28;20335;-60
2022/01/18 07:24:17;;;;;;;;;;;7.50;99.90;;;;;;5094038;28;19912;-60
2022/01/18 07:26:43;;;;;;;;;;;7.50;99.90;;;;;;5091032;28;19920;-60
2022/01/18 07:29:08;;;;;;;;;;;7.50;99.90;;;;;;5094338;28;19936;-60
2022/01/18 07:31:34;;;;;;;;;;;7.50;99.90;;;;;;5094019;28;20012;-60
2022/01/18 07:33:59;;;;;;;;;;;7.40;99.90;;;;;;5093583;28;19939;-60
2022/01/18 07:36:25;;;;;;;;;;;7.50;99.90;;;;;;5093267;28;19912;-61
2022/01/18 07:38:50;;;;;;;;;;;7.40;99.90;;;;;;5091768;28;19912;-60
2022/01/18 07:41:16;;;;;;;;;;;7.40;99.90;;;;;;5111839;28;20338;-60
2022/01/18 07:43:42;;;;;;;;;;;7.40;99.90;;;;;;5111030;28;19998;-61
2022/01/18 07:46:07;;;;;;;;;;;7.30;99.90;;;;;;5094224;28;19912;-61
2022/01/18 07:48:33;;;;;;;;;;;7.40;99.90;;;;;;5094007;28;19947;-60
2022/01/18 07:50:58;;;;;;;;;;;7.30;99.90;;;;;;5094617;28;19951;-60
2022/01/18 07:53:24;;;;;;;;;;;7.30;99.90;;;;;;5094115;28;19924;-60
2022/01/18 07:55:50;;;;;;;;;;;7.30;99.90;;;;;;5097647;28;19912;-60
2022/01/18 07:58:15;;;;;;;;;;;7.30;99.90;;;;;;5114911;28;20386;-60
2022/01/18 08:00:41;;;;;;;;;;;7.20;99.90;;;;;;5114801;28;19911;-61
2022/01/18 08:03:06;;;;;;;;;;;7.20;99.90;;;;;;5114262;28;19915;-60
2022/01/18 08:05:32;;;;;;;;;;;7.20;99.90;;;;;;5053400;28;1726162;-60
2022/01/18 08:07:57;;;;;;;;;;;7.20;99.90;;;;;;5115826;28;19964;-60
2022/01/18 08:10:30;;;;;;;;;;;7.10;99.90;;;;;;5114968;28;19908;-60
2022/01/18 08:12:56;;;;;;;;;;;7.10;99.90;;;;;;5115598;28;19923;-60
2022/01/18 08:15:23;;;;;;;;;;;7.10;99.90;;;;;;5099676;28;19908;-60
2022/01/18 08:17:49;;;;;;;;;;;7.10;99.90;;;;;;5109100;28;19915;-60
2022/01/18 08:20:14;;;;;;;;;;;7.10;99.90;;;;;;5114328;28;19912;-60
2022/01/18 08:22:41;;;;;;;;;;;7.10;99.90;;;;;;5094681;28;20363;-60
2022/01/18 08:25:06;;;;;;;;;;;7.10;99.90;;;;;;5094991;28;19908;-61
2022/01/18 08:27:32;;;;;;;;;;;7.10;99.90;;;;;;5094987;28;19908;-60
2022/01/18 08:29:58;;;;;;;;;;;7.10;99.90;;;;;;5094354;28;19912;-60
2022/01/18 08:32:23;;;;;;;;;;;7.10;99.90;;;;;;5084030;28;19920;-60
2022/01/18 08:34:48;;;;;;;;;;;7.10;99.90;;;;;;5074580;28;19913;-60
2022/01/18 08:37:14;;;;;;;;;;;7.10;99.90;;;;;;5074033;28;19961;-60
2022/01/18 08:39:39;;;;;;;;;;;7.10;99.90;;;;;;5076067;28;20253;-60
2022/01/18 08:42:05;;;;;;;;;;;7.10;99.90;;;;;;5083913;28;19959;-59
2022/01/18 08:44:31;;;;;;;;;;;7.10;99.90;;;;;;5073821;28;19948;-60
2022/01/18 08:46:56;;;;;;;;;;;7.10;99.90;;;;;;5089890;28;19961;-60
2022/01/18 08:49:21;;;;;;;;;;;7.20;99.90;;;;;;5094579;28;20325;-60
2022/01/18 08:51:47;;;;;;;;;;;7.20;99.90;;;;;;5085086;28;19916;-60
2022/01/18 08:54:12;;;;;;;;;;;7.20;99.90;;;;;;5074152;28;19912;-61
2022/01/18 08:56:38;;;;;;;;;;;7.20;99.90;;;;;;5074164;28;19962;-60
2022/01/18 08:59:03;;;;;;;;;;;7.10;99.90;;;;;;5073586;28;20271;-60
2022/01/18 09:01:29;;;;;;;;;;;7.20;99.90;;;;;;5093118;28;19999;-61
2022/01/18 09:03:54;;;;;;;;;;;7.20;99.90;;;;;;5094196;28;19920;-60
2022/01/18 09:06:22;;;;;;;;;;;7.20;99.90;;;;;;5093439;28;19927;-60
2022/01/18 09:08:55;;;;;;;;;;;7.20;99.90;;;;;;5094311;28;20307;-60
2022/01/18 09:11:23;;;;;;;;;;;7.30;99.90;;;;;;5075658;28;19920;-60
2022/01/18 09:13:49;;;;;;;;;;;7.30;99.90;;;;;;5055739;28;20233;-60
2022/01/18 09:16:14;;;;;;;;;;;7.30;99.90;;;;;;5073905;28;19919;-60
2022/01/18 09:18:39;;;;;;;;;;;7.30;99.90;;;;;;5073730;28;19915;-60
2022/01/18 09:21:05;;;;;;;;;;;7.30;99.90;;;;;;5074121;28;19951;-60
2022/01/18 09:23:31;;;;;;;;;;;7.30;99.90;;;;;;5073764;28;19909;-60
2022/01/18 09:25:57;;;;;;;;;;;7.30;99.90;;;;;;5087663;28;19916;-59
2022/01/18 09:28:23;;;;;;;;;;;7.40;99.90;;;;;;5092991;28;20381;-60
2022/01/18 09:30:48;;;;;;;;;;;7.40;99.90;;;;;;5092313;28;19919;-60
2022/01/18 09:33:13;;;;;;;;;;;7.40;99.90;;;;;;5089749;28;19920;-60
2022/01/18 09:35:39;;;;;;;;;;;7.50;99.90;;;;;;5091547;28;19916;-60
2022/01/18 09:38:05;;;;;;;;;;;7.50;99.90;;;;;;5092731;28;19957;-60
2022/01/18 09:40:33;;;;;;;;;;;7.40;99.90;;;;;;5092976;28;20339;-60
2022/01/18 09:43:00;;;;;;;;;;;7.50;99.90;;;;;;5092162;28;20355;-60
2022/01/18 09:45:27;;;;;;;;;;;7.50;99.90;;;;;;5092826;28;19927;-60
2022/01/18 09:47:54;;;;;;;;;;;7.50;99.90;;;;;;5092753;28;19908;-60
2022/01/18 09:50:21;;;;;;;;;;;7.60;99.90;;;;;;5093450;28;19908;-60
2022/01/18 09:52:52;;;;;;;;;;;7.50;99.90;;;;;;5088677;28;19920;-60
2022/01/18 09:55:17;;;;;;;;;;;7.60;99.90;;;;;;5072559;28;20356;-60
2022/01/18 09:57:43;;;;;;;;;;;7.60;99.90;;;;;;5073572;28;19908;-60
2022/01/18 10:00:09;;;;;;;;;;;7.60;99.90;;;;;;5073163;28;20272;-60
2022/01/18 10:02:34;;;;;;;;;;;7.60;99.90;;;;;;5073635;28;20085;-60
2022/01/18 10:05:00;;;;;;;;;;;7.70;99.90;;;;;;5072942;28;19920;-60
2022/01/18 10:07:33;;;;;;;;;;;7.60;99.90;;;;;;5073161;28;19920;-60
2022/01/18 10:10:00;;;;;;;;;;;7.70;99.90;;;;;;5072512;28;20007;-60
2022/01/18 10:12:25;;;;;;;;;;;7.70;99.90;;;;;;5077352;28;20018;-60
2022/01/18 10:14:52;;;;;;;;;;;7.80;99.90;;;;;;5093405;28;19963;-60
2022/01/18 10:17:31;;;;;;;;;;;7.90;99.90;;;;;;5092886;28;19940;-60
2022/01/18 10:20:04;;;;;;;;;;;7.90;99.90;;;;;;5093505;28;20325;-60
2022/01/18 10:22:35;;;;;;;;;;;8.00;99.90;;;;;;5084778;28;19946;-60
2022/01/18 10:25:13;;;;;;;;;;;8.00;99.90;;;;;;5072946;28;19916;-61
2022/01/18 10:27:38;;;;;;;;;;;7.90;99.90;;;;;;5073254;28;19908;-60
2022/01/18 10:30:09;;;;;;;;;;;8.00;99.90;;;;;;5071925;28;20410;-60
2022/01/18 10:32:40;;;;;;;;;;;8.00;99.90;;;;;;5079994;28;19924;-60
2022/01/18 10:35:08;;;;;;;;;;;8.10;99.90;;;;;;5091671;28;19965;-60
2022/01/18 10:37:35;;;;;;;;;;;8.10;99.90;;;;;;5091023;28;20003;-60
2022/01/18 10:40:03;;;;;;;;;;;8.20;99.90;;;;;;5091167;28;19916;-60
2022/01/18 10:42:39;;;;;;;;;;;8.20;99.90;;;;;;5093003;28;19908;-60
2022/01/18 10:45:09;;;;;;;;;;;8.30;99.90;;;;;;5088004;28;19991;-60
2022/01/18 10:47:35;;;;;;;;;;;8.30;99.90;;;;;;5087833;28;20098;-60
2022/01/18 10:50:11;;;;;;;;;;;8.30;99.90;;;;;;5092068;28;19967;-60
2022/01/18 10:52:37;;;;;;;;;;;8.30;99.90;;;;;;5092614;28;19916;-61
2022/01/18 10:55:03;;;;;;;;;;;8.30;99.90;;;;;;5093800;28;20290;-60
2022/01/18 10:57:30;;;;;;;;;;;8.30;99.90;;;;;;5095039;28;19912;-60
2022/01/18 10:59:56;;;;;;;;;;;8.30;99.90;;;;;;5096161;28;19919;-60
2022/01/18 11:02:22;;;;;;;;;;;8.30;99.90;;;;;;5096204;28;19908;-60
2022/01/18 11:04:48;;;;;;;;;;;8.20;99.90;;;;;;5095974;28;19920;-60
2022/01/18 11:07:15;;;;;;;;;;;8.30;99.90;;;;;;5093340;28;19924;-60
2022/01/18 11:09:41;;;;;;;;;;;8.30;99.90;;;;;;5096391;28;19908;-61
2022/01/18 11:12:07;;;;;;;;;;;8.40;99.90;;;;;;5095595;28;20351;-60
2022/01/18 11:14:33;;;;;;;;;;;8.40;99.90;;;;;;5096253;28;19908;-60
2022/01/18 11:16:59;;;;;;;;;;;8.30;99.90;;;;;;5094554;28;20349;-60
2022/01/18 11:21:52;;;;;;;;;;;8.30;99.90;;;;;;5096405;28;19998;-60
2022/01/18 11:24:18;;;;;;;;;;;8.40;99.90;;;;;;5096006;28;19995;-60
2022/01/18 11:26:45;;;;;;;;;;;8.30;99.90;;;;;;5095729;28;19909;-60
2022/01/18 11:29:16;;;;;;;;;;;8.30;99.90;;;;;;5077914;28;19928;-60
2022/01/18 11:31:45;;;;;;;;;;;8.30;99.90;;;;;;5075095;28;19924;-61
2022/01/18 11:34:13;;;;;;;;;;;8.40;99.90;;;;;;5074905;28;20363;-60
2022/01/18 11:36:44;;;;;;;;;;;8.40;99.90;;;;;;5075731;28;20397;-60
2022/01/18 11:39:11;;;;;;;;;;;8.40;99.90;;;;;;5092430;28;19912;-60
2022/01/18 11:41:36;;;;;;;;;;;8.30;99.90;;;;;;5094953;28;19960;-60
2022/01/18 11:44:19;;;;;;;;;;;8.30;99.90;;;;;;5095880;28;19912;-60
2022/01/18 11:46:47;;;;;;;;;;;8.30;99.90;;;;;;5095031;28;19912;-60
2022/01/18 11:49:21;;;;;;;;;;;8.30;99.90;;;;;;5079193;28;19912;-60
2022/01/18 11:51:49;;;;;;;;;;;8.30;99.90;;;;;;5089132;28;19920;-60
2022/01/18 11:54:35;;;;;;;;;;;8.30;99.90;;;;;;5093801;28;19915;-60
2022/01/18 11:57:02;;;;;;;;;;;8.30;99.90;;;;;;5093701;28;19918;-60
2022/01/18 11:59:38;;;;;;;;;;;8.30;99.90;;;;;;5094792;28;19966;-60
2022/01/18 12:02:04;;;;;;;;;;;8.30;99.90;;;;;;5091560;28;20336;-60
2022/01/18 12:04:46;;;;;;;;;;;8.30;99.90;;;;;;5093644;28;20014;-60
2022/01/18 12:07:31;;;;;;;;;;;8.30;99.90;;;;;;5096339;28;20251;-60
2022/01/18 12:09:57;;;;;;;;;;;8.20;99.90;;;;;;5101989;28;20305;-60
2022/01/18 12:12:41;;;;;;;;;;;8.20;99.90;;;;;;5103684;28;19916;-60
2022/01/18 12:15:15;;;;;;;;;;;8.20;99.90;;;;;;5092951;28;19947;-60
2022/01/18 12:17:47;;;;;;;;;;;8.20;99.90;;;;;;5091893;28;19934;-60
2022/01/18 12:20:31;;;;;;;;;;;8.20;99.90;;;;;;5091411;28;19908;-60
2022/01/18 12:23:01;;;;;;;;;;;8.10;99.90;;;;;;5091456;28;19931;-60
2022/01/18 12:25:28;;;;;;;;;;;8.20;99.90;;;;;;5093999;28;19908;-61
2022/01/18 12:27:55;;;;;;;;;;;8.20;99.90;;;;;;5089795;28;20351;-61
2022/01/18 12:30:53;;;;;;;;;;;8.10;99.90;;;;;;5093477;28;19908;-60
2022/01/18 12:33:20;;;;;;;;;;;8.10;99.90;;;;;;5091653;28;20343;-60
2022/01/18 12:35:45;;;;;;;;;;;8.20;99.90;;;;;;5093731;28;19935;-60
2022/01/18 12:38:23;;;;;;;;;;;8.10;99.90;;;;;;5092256;28;20479;-60
2022/01/18 12:40:49;;;;;;;;;;;8.10;99.90;;;;;;5089235;28;19916;-61
2022/01/18 12:45:42;;;;;;;;;;;8.00;99.90;;;;;;5089092;28;19912;-60
2022/01/18 12:48:10;;;;;;;;;;;8.00;99.90;;;;;;5094430;28;20347;-60
2022/01/18 12:50:37;;;;;;;;;;;8.00;99.90;;;;;;5094044;28;19912;-60
2022/01/18 12:53:07;;;;;;;;;;;7.90;99.90;;;;;;5094342;28;20026;-60
2022/01/18 12:55:35;;;;;;;;;;;8.00;99.90;;;;;;5093253;28;20351;-60
2022/01/18 12:58:01;;;;;;;;;;;8.00;99.90;;;;;;5093855;28;19930;-60
2022/01/18 13:00:27;;;;;;;;;;;8.00;99.90;;;;;;5076138;28;19916;-60
2022/01/18 13:02:56;;;;;;;;;;;8.00;99.90;;;;;;5073943;28;19909;-60
2022/01/18 13:05:31;;;;;;;;;;;8.00;99.90;;;;;;5081445;28;19973;-60
2022/01/18 13:07:56;;;;;;;;;;;7.90;99.90;;;;;;5094272;28;19908;-61
2022/01/18 13:10:37;;;;;;;;;;;7.90;99.90;;;;;;5094117;28;19969;-61
2022/01/18 13:13:03;;;;;;;;;;;7.90;99.90;;;;;;5093468;28;19924;-61
2022/01/18 13:15:47;;;;;;;;;;;7.90;99.90;;;;;;5085530;28;19912;-60
2022/01/18 13:24:22;;;;;;;;;;;7.90;99.90;;;;;;5073925;28;19931;-60
2022/01/18 13:26:48;;;;;;;;;;;7.80;99.90;;;;;;5090943;28;20065;-60
2022/01/18 13:29:15;;;;;;;;;;;7.80;99.90;;;;;;5093847;28;19912;-60
2022/01/18 13:31:43;;;;;;;;;;;7.80;99.90;;;;;;5093888;28;19916;-60
2022/01/18 13:34:13;;;;;;;;;;;7.70;99.90;;;;;;5079562;28;19974;-60
2022/01/18 13:36:48;;;;;;;;;;;7.80;99.90;;;;;;5073544;28;19912;-61
2022/01/18 13:39:22;;;;;;;;;;;7.80;99.90;;;;;;5072834;28;19974;-60
2022/01/18 13:41:48;;;;;;;;;;;7.80;99.90;;;;;;5073551;28;19908;-60
2022/01/18 13:44:13;;;;;;;;;;;7.80;99.90;;;;;;5084621;28;20362;-61
2022/01/18 13:46:39;;;;;;;;;;;7.80;99.90;;;;;;5092819;28;19951;-61
2022/01/18 13:49:05;;;;;;;;;;;7.80;99.90;;;;;;5093658;28;20155;-60
2022/01/18 13:51:31;;;;;;;;;;;7.80;99.90;;;;;;5093337;28;19916;-60
2022/01/18 13:54:03;;;;;;;;;;;7.80;99.90;;;;;;5078970;28;20578;-60
2022/01/18 13:56:28;;;;;;;;;;;7.80;99.90;;;;;;5073437;28;19919;-61
2022/01/18 13:59:01;;;;;;;;;;;7.80;99.90;;;;;;5072921;28;19909;-61
2022/01/18 14:01:28;;;;;;;;;;;7.80;99.90;;;;;;5072933;28;19959;-61
2022/01/18 14:03:58;;;;;;;;;;;7.80;99.90;;;;;;5084065;28;20383;-60
2022/01/18 14:06:37;;;;;;;;;;;7.80;99.90;;;;;;5092878;28;19920;-60
2022/01/18 14:09:03;;;;;;;;;;;7.80;99.90;;;;;;5092828;28;19996;-61
2022/01/18 14:11:31;;;;;;;;;;;7.70;99.90;;;;;;5093012;28;20007;-61
2022/01/18 14:13:57;;;;;;;;;;;7.70;99.90;;;;;;5077179;28;19913;-60
2022/01/18 14:16:27;;;;;;;;;;;7.70;99.90;;;;;;5072676;28;20413;-60
2022/01/18 14:19:06;;;;;;;;;;;7.60;99.90;;;;;;5073026;28;19962;-61
2022/01/18 14:21:33;;;;;;;;;;;7.60;99.90;;;;;;5072507;28;19908;-61
2022/01/18 14:24:07;;;;;;;;;;;7.50;99.90;;;;;;5086746;28;20015;-60
2022/01/18 14:26:35;;;;;;;;;;;7.60;99.90;;;;;;5093209;28;20020;-60
2022/01/18 14:29:02;;;;;;;;;;;7.50;99.90;;;;;;5092694;28;19912;-61
2022/01/18 14:31:27;;;;;;;;;;;7.50;99.90;;;;;;5096358;28;20951;-60
2022/01/18 14:33:53;;;;;;;;;;;7.60;99.90;;;;;;5095204;28;20007;-61
2022/01/18 14:36:18;;;;;;;;;;;7.50;99.90;;;;;;5096412;28;19915;-61
2022/01/18 14:38:44;;;;;;;;;;;7.50;99.90;;;;;;5096866;28;19908;-61
2022/01/18 14:41:19;;;;;;;;;;;7.50;99.90;;;;;;5096765;28;19909;-61
2022/01/18 14:43:44;;;;;;;;;;;7.50;99.90;;;;;;5079949;28;19912;-61
2022/01/18 14:46:23;;;;;;;;;;;7.50;99.90;;;;;;5076726;28;19955;-61
2022/01/18 14:48:49;;;;;;;;;;;7.40;99.90;;;;;;5076673;28;19909;-61
2022/01/18 14:51:14;;;;;;;;;;;7.40;99.90;;;;;;5075768;28;19956;-61
2022/01/18 14:53:40;;;;;;;;;;;7.40;99.90;;;;;;5092158;28;19959;-61
2022/01/18 14:56:06;;;;;;;;;;;7.30;99.90;;;;;;5076478;28;19913;-60
2022/01/18 14:58:31;;;;;;;;;;;7.30;99.90;;;;;;5075815;28;19908;-60
2022/01/18 15:00:59;;;;;;;;;;;7.40;99.90;;;;;;5076164;28;19915;-60
2022/01/18 15:03:24;;;;;;;;;;;7.30;99.90;;;;;;5077240;28;19913;-60
2022/01/18 15:05:49;;;;;;;;;;;7.30;99.90;;;;;;5075459;28;19965;-60
2022/01/18 15:08:15;;;;;;;;;;;7.30;99.90;;;;;;5076118;28;20375;-60
2022/01/18 15:10:40;;;;;;;;;;;7.30;99.90;;;;;;5075486;28;19908;-60
2022/01/18 15:13:07;;;;;;;;;;;7.30;99.90;;;;;;5087740;28;19920;-60
2022/01/18 15:15:33;;;;;;;;;;;7.30;99.90;;;;;;5096330;28;19918;-60
2022/01/18 15:17:59;;;;;;;;;;;7.20;99.90;;;;;;5089064;28;19912;-60
2022/01/18 15:20:25;;;;;;;;;;;7.20;99.90;;;;;;5090670;28;19919;-60
2022/01/18 15:22:53;;;;;;;;;;;7.20;99.90;;;;;;5108038;28;19916;-60
2022/01/18 15:25:24;;;;;;;;;;;7.10;99.90;;;;;;5115266;28;19944;-60
2022/01/18 15:27:50;;;;;;;;;;;7.20;99.90;;;;;;5075244;28;19912;-60
2022/01/18 15:30:16;;;;;;;;;;;7.10;99.90;;;;;;5075167;28;20386;-60
2022/01/18 15:32:43;;;;;;;;;;;7.10;99.90;;;;;;5074210;28;19967;-59